sensor_id;sensor_type;location;lat;lon;timestamp;P1;durP1;ratioP1;P2;durP2;ratioP2
17059;SDS011;8646;49.716;9.266;2023-03-03T00:01:59;33.77;;;13.83;;
17059;SDS011;8646;49.716;9.266;2023-03-03T00:05:07;33.33;;;15.50;;
17059;SDS011;8646;49.716;9.266;2023-03-03T00:08:10;35.10;;;15.30;;
17059;SDS011;8646;49.716;9.266;2023-03-03T00:11:13;45.13;;;18.90;;
17059;SDS011;8646;49.716;9.266;2023-03-03T00:14:21;40.50;;;17.87;;
17059;SDS011;8646;49.716;9.266;2023-03-03T00:17:29;34.57;;;15.37;;
17059;SDS011;8646;49.716;9.266;2023-03-03T00:20:45;31.53;;;14.23;;
17059;SDS011;8646;49.716;9.266;2023-03-03T00:23:50;29.90;;;13.23;;
17059;SDS011;8646;49.716;9.266;2023-03-03T00:26:55;30.87;;;13.70;;
17059;SDS011;8646;49.716;9.266;2023-03-03T00:30:09;26.77;;;12.50;;
17059;SDS011;8646;49.716;9.266;2023-03-03T00:33:21;24.27;;;11.93;;
17059;SDS011;8646;49.716;9.266;2023-03-03T00:36:36;31.43;;;12.77;;
17059;SDS011;8646;49.716;9.266;2023-03-03T00:39:39;24.40;;;11.70;;
17059;SDS011;8646;49.716;9.266;2023-03-03T00:42:43;26.87;;;12.57;;
17059;SDS011;8646;49.716;9.266;2023-03-03T00:45:54;25.47;;;11.97;;
17059;SDS011;8646;49.716;9.266;2023-03-03T00:49:01;29.27;;;10.93;;
17059;SDS011;8646;49.716;9.266;2023-03-03T00:52:23;25.60;;;11.43;;
17059;SDS011;8646;49.716;9.266;2023-03-03T00:55:31;22.30;;;11.30;;
17059;SDS011;8646;49.716;9.266;2023-03-03T00:58:35;29.37;;;12.27;;
17059;SDS011;8646;49.716;9.266;2023-03-03T01:01:47;24.10;;;11.17;;
17059;SDS011;8646;49.716;9.266;2023-03-03T01:04:52;26.67;;;11.40;;
17059;SDS011;8646;49.716;9.266;2023-03-03T01:07:56;23.77;;;11.37;;
17059;SDS011;8646;49.716;9.266;2023-03-03T01:11:02;26.20;;;12.07;;
17059;SDS011;8646;49.716;9.266;2023-03-03T01:14:07;29.87;;;13.10;;
17059;SDS011;8646;49.716;9.266;2023-03-03T01:17:12;28.30;;;12.70;;
17059;SDS011;8646;49.716;9.266;2023-03-03T01:20:15;27.57;;;11.97;;
17059;SDS011;8646;49.716;9.266;2023-03-03T01:23:18;26.27;;;11.90;;
17059;SDS011;8646;49.716;9.266;2023-03-03T01:26:23;27.33;;;11.73;;
17059;SDS011;8646;49.716;9.266;2023-03-03T01:29:26;26.43;;;11.87;;
17059;SDS011;8646;49.716;9.266;2023-03-03T01:32:38;24.47;;;11.10;;
17059;SDS011;8646;49.716;9.266;2023-03-03T01:35:45;23.90;;;11.33;;
17059;SDS011;8646;49.716;9.266;2023-03-03T01:38:48;29.20;;;11.77;;
17059;SDS011;8646;49.716;9.266;2023-03-03T01:41:51;32.20;;;12.87;;
17059;SDS011;8646;49.716;9.266;2023-03-03T01:45:12;28.30;;;12.37;;
17059;SDS011;8646;49.716;9.266;2023-03-03T01:48:19;27.20;;;12.13;;
17059;SDS011;8646;49.716;9.266;2023-03-03T01:51:40;31.03;;;13.13;;
17059;SDS011;8646;49.716;9.266;2023-03-03T01:54:49;25.93;;;11.60;;
17059;SDS011;8646;49.716;9.266;2023-03-03T01:57:56;28.00;;;12.13;;
17059;SDS011;8646;49.716;9.266;2023-03-03T02:01:03;24.40;;;11.33;;
17059;SDS011;8646;49.716;9.266;2023-03-03T02:04:08;22.40;;;11.10;;
17059;SDS011;8646;49.716;9.266;2023-03-03T02:07:15;21.17;;;10.37;;
17059;SDS011;8646;49.716;9.266;2023-03-03T02:10:25;23.97;;;10.77;;
17059;SDS011;8646;49.716;9.266;2023-03-03T02:13:29;27.30;;;11.33;;
17059;SDS011;8646;49.716;9.266;2023-03-03T02:16:38;25.13;;;10.97;;
17059;SDS011;8646;49.716;9.266;2023-03-03T02:19:43;25.77;;;12.00;;
17059;SDS011;8646;49.716;9.266;2023-03-03T02:23:07;23.80;;;11.17;;
17059;SDS011;8646;49.716;9.266;2023-03-03T02:26:16;25.37;;;10.93;;
17059;SDS011;8646;49.716;9.266;2023-03-03T02:29:23;27.60;;;11.00;;
17059;SDS011;8646;49.716;9.266;2023-03-03T02:32:28;24.97;;;10.30;;
17059;SDS011;8646;49.716;9.266;2023-03-03T02:35:34;22.73;;;10.60;;
17059;SDS011;8646;49.716;9.266;2023-03-03T02:38:50;21.43;;;10.40;;
17059;SDS011;8646;49.716;9.266;2023-03-03T02:42:13;23.30;;;10.67;;
17059;SDS011;8646;49.716;9.266;2023-03-03T02:45:21;25.03;;;9.93;;
17059;SDS011;8646;49.716;9.266;2023-03-03T02:48:29;22.57;;;10.63;;
17059;SDS011;8646;49.716;9.266;2023-03-03T02:51:35;26.47;;;11.30;;
17059;SDS011;8646;49.716;9.266;2023-03-03T02:54:41;20.47;;;10.07;;
17059;SDS011;8646;49.716;9.266;2023-03-03T02:57:46;21.43;;;9.73;;
17059;SDS011;8646;49.716;9.266;2023-03-03T03:00:49;20.33;;;10.17;;
17059;SDS011;8646;49.716;9.266;2023-03-03T03:03:52;24.90;;;10.80;;
17059;SDS011;8646;49.716;9.266;2023-03-03T03:06:57;21.93;;;10.30;;
17059;SDS011;8646;49.716;9.266;2023-03-03T03:10:07;21.97;;;10.47;;
17059;SDS011;8646;49.716;9.266;2023-03-03T03:13:11;27.07;;;11.17;;
17059;SDS011;8646;49.716;9.266;2023-03-03T03:16:14;21.93;;;10.50;;
17059;SDS011;8646;49.716;9.266;2023-03-03T03:19:17;27.93;;;10.60;;
17059;SDS011;8646;49.716;9.266;2023-03-03T03:22:20;39.33;;;11.50;;
17059;SDS011;8646;49.716;9.266;2023-03-03T03:25:22;25.90;;;12.37;;
17059;SDS011;8646;49.716;9.266;2023-03-03T03:28:27;22.20;;;10.50;;
17059;SDS011;8646;49.716;9.266;2023-03-03T03:31:30;21.57;;;11.07;;
17059;SDS011;8646;49.716;9.266;2023-03-03T03:34:38;24.17;;;11.20;;
17059;SDS011;8646;49.716;9.266;2023-03-03T03:37:41;23.00;;;10.60;;
17059;SDS011;8646;49.716;9.266;2023-03-03T03:40:43;22.77;;;10.47;;
17059;SDS011;8646;49.716;9.266;2023-03-03T03:43:49;22.40;;;10.80;;
17059;SDS011;8646;49.716;9.266;2023-03-03T03:46:52;22.77;;;10.37;;
17059;SDS011;8646;49.716;9.266;2023-03-03T03:49:57;19.73;;;9.33;;
17059;SDS011;8646;49.716;9.266;2023-03-03T03:53:03;23.57;;;10.70;;
17059;SDS011;8646;49.716;9.266;2023-03-03T03:56:07;21.87;;;9.80;;
17059;SDS011;8646;49.716;9.266;2023-03-03T03:59:17;20.67;;;10.17;;
17059;SDS011;8646;49.716;9.266;2023-03-03T04:02:21;20.33;;;9.57;;
17059;SDS011;8646;49.716;9.266;2023-03-03T04:05:24;21.87;;;9.87;;
17059;SDS011;8646;49.716;9.266;2023-03-03T04:08:26;24.37;;;10.13;;
17059;SDS011;8646;49.716;9.266;2023-03-03T04:11:30;24.90;;;10.30;;
17059;SDS011;8646;49.716;9.266;2023-03-03T04:14:41;20.60;;;9.83;;
17059;SDS011;8646;49.716;9.266;2023-03-03T04:17:53;29.77;;;11.90;;
17059;SDS011;8646;49.716;9.266;2023-03-03T04:20:56;23.60;;;10.90;;
17059;SDS011;8646;49.716;9.266;2023-03-03T04:23:59;30.23;;;12.10;;
17059;SDS011;8646;49.716;9.266;2023-03-03T04:27:05;31.50;;;13.57;;
17059;SDS011;8646;49.716;9.266;2023-03-03T04:30:10;66.33;;;25.50;;
17059;SDS011;8646;49.716;9.266;2023-03-03T04:33:14;40.90;;;17.07;;
17059;SDS011;8646;49.716;9.266;2023-03-03T04:36:16;43.47;;;17.50;;
17059;SDS011;8646;49.716;9.266;2023-03-03T04:39:21;42.80;;;18.13;;
17059;SDS011;8646;49.716;9.266;2023-03-03T04:42:24;39.90;;;16.60;;
17059;SDS011;8646;49.716;9.266;2023-03-03T04:45:29;30.70;;;13.77;;
17059;SDS011;8646;49.716;9.266;2023-03-03T04:48:32;32.83;;;14.90;;
17059;SDS011;8646;49.716;9.266;2023-03-03T04:51:35;25.23;;;11.47;;
17059;SDS011;8646;49.716;9.266;2023-03-03T04:54:43;28.13;;;12.40;;
17059;SDS011;8646;49.716;9.266;2023-03-03T04:57:46;23.10;;;11.13;;
17059;SDS011;8646;49.716;9.266;2023-03-03T05:00:53;25.23;;;10.63;;
17059;SDS011;8646;49.716;9.266;2023-03-03T05:03:58;23.60;;;10.23;;
17059;SDS011;8646;49.716;9.266;2023-03-03T05:07:05;24.37;;;11.13;;
17059;SDS011;8646;49.716;9.266;2023-03-03T05:10:08;21.30;;;10.47;;
17059;SDS011;8646;49.716;9.266;2023-03-03T05:13:11;24.77;;;11.80;;
17059;SDS011;8646;49.716;9.266;2023-03-03T05:16:16;26.00;;;10.73;;
17059;SDS011;8646;49.716;9.266;2023-03-03T05:19:19;29.70;;;11.87;;
17059;SDS011;8646;49.716;9.266;2023-03-03T05:22:22;18.93;;;9.10;;
17059;SDS011;8646;49.716;9.266;2023-03-03T05:25:29;21.50;;;10.33;;
17059;SDS011;8646;49.716;9.266;2023-03-03T05:28:34;22.63;;;10.17;;
17059;SDS011;8646;49.716;9.266;2023-03-03T05:31:38;26.53;;;11.20;;
17059;SDS011;8646;49.716;9.266;2023-03-03T05:34:41;31.43;;;13.10;;
17059;SDS011;8646;49.716;9.266;2023-03-03T05:37:47;28.10;;;13.47;;
17059;SDS011;8646;49.716;9.266;2023-03-03T05:40:50;25.90;;;12.47;;
17059;SDS011;8646;49.716;9.266;2023-03-03T05:43:52;24.30;;;11.70;;
17059;SDS011;8646;49.716;9.266;2023-03-03T05:47:00;25.80;;;11.23;;
17059;SDS011;8646;49.716;9.266;2023-03-03T05:50:17;27.07;;;10.60;;
17059;SDS011;8646;49.716;9.266;2023-03-03T05:53:20;25.30;;;10.77;;
17059;SDS011;8646;49.716;9.266;2023-03-03T05:56:23;26.50;;;11.23;;
17059;SDS011;8646;49.716;9.266;2023-03-03T05:59:27;26.80;;;11.43;;
17059;SDS011;8646;49.716;9.266;2023-03-03T06:02:31;30.33;;;12.53;;
17059;SDS011;8646;49.716;9.266;2023-03-03T06:05:35;27.07;;;11.97;;
17059;SDS011;8646;49.716;9.266;2023-03-03T06:08:37;32.27;;;13.30;;
17059;SDS011;8646;49.716;9.266;2023-03-03T06:11:45;26.37;;;11.23;;
17059;SDS011;8646;49.716;9.266;2023-03-03T06:15:08;30.80;;;14.27;;
17059;SDS011;8646;49.716;9.266;2023-03-03T06:18:13;36.40;;;15.43;;
17059;SDS011;8646;49.716;9.266;2023-03-03T06:21:16;46.03;;;20.00;;
17059;SDS011;8646;49.716;9.266;2023-03-03T06:24:18;43.97;;;18.60;;
17059;SDS011;8646;49.716;9.266;2023-03-03T06:27:21;49.67;;;20.23;;
17059;SDS011;8646;49.716;9.266;2023-03-03T06:30:24;45.37;;;20.27;;
17059;SDS011;8646;49.716;9.266;2023-03-03T06:33:32;53.80;;;20.17;;
17059;SDS011;8646;49.716;9.266;2023-03-03T06:36:35;44.83;;;20.17;;
17059;SDS011;8646;49.716;9.266;2023-03-03T06:39:38;35.77;;;15.07;;
17059;SDS011;8646;49.716;9.266;2023-03-03T06:42:41;30.93;;;14.30;;
17059;SDS011;8646;49.716;9.266;2023-03-03T06:45:44;29.33;;;13.60;;
17059;SDS011;8646;49.716;9.266;2023-03-03T06:48:48;31.30;;;14.07;;
17059;SDS011;8646;49.716;9.266;2023-03-03T06:51:52;29.07;;;13.73;;
17059;SDS011;8646;49.716;9.266;2023-03-03T06:54:56;24.63;;;11.97;;
17059;SDS011;8646;49.716;9.266;2023-03-03T06:58:04;35.93;;;14.03;;
17059;SDS011;8646;49.716;9.266;2023-03-03T07:01:12;31.00;;;13.47;;
17059;SDS011;8646;49.716;9.266;2023-03-03T07:04:23;34.50;;;16.23;;
17059;SDS011;8646;49.716;9.266;2023-03-03T07:07:31;36.03;;;15.50;;
17059;SDS011;8646;49.716;9.266;2023-03-03T07:10:34;33.77;;;15.17;;
17059;SDS011;8646;49.716;9.266;2023-03-03T07:13:37;30.63;;;13.90;;
17059;SDS011;8646;49.716;9.266;2023-03-03T07:16:46;31.17;;;13.27;;
17059;SDS011;8646;49.716;9.266;2023-03-03T07:19:58;29.00;;;13.50;;
17059;SDS011;8646;49.716;9.266;2023-03-03T07:23:07;31.47;;;14.60;;
17059;SDS011;8646;49.716;9.266;2023-03-03T07:26:24;36.83;;;15.07;;
17059;SDS011;8646;49.716;9.266;2023-03-03T07:29:31;44.70;;;14.30;;
17059;SDS011;8646;49.716;9.266;2023-03-03T07:32:36;32.53;;;14.33;;
17059;SDS011;8646;49.716;9.266;2023-03-03T07:35:43;33.63;;;14.57;;
17059;SDS011;8646;49.716;9.266;2023-03-03T07:38:48;45.60;;;15.23;;
17059;SDS011;8646;49.716;9.266;2023-03-03T07:41:57;36.70;;;15.77;;
17059;SDS011;8646;49.716;9.266;2023-03-03T07:45:20;33.27;;;15.60;;
17059;SDS011;8646;49.716;9.266;2023-03-03T07:48:30;27.73;;;12.87;;
17059;SDS011;8646;49.716;9.266;2023-03-03T07:51:39;32.20;;;13.23;;
17059;SDS011;8646;49.716;9.266;2023-03-03T07:54:43;33.50;;;14.13;;
17059;SDS011;8646;49.716;9.266;2023-03-03T07:57:47;29.13;;;13.17;;
17059;SDS011;8646;49.716;9.266;2023-03-03T08:04:34;32.63;;;13.50;;
17059;SDS011;8646;49.716;9.266;2023-03-03T08:07:45;27.97;;;12.80;;
17059;SDS011;8646;49.716;9.266;2023-03-03T08:10:48;31.33;;;13.47;;
17059;SDS011;8646;49.716;9.266;2023-03-03T08:13:59;27.97;;;13.40;;
17059;SDS011;8646;49.716;9.266;2023-03-03T08:17:06;37.57;;;15.53;;
17059;SDS011;8646;49.716;9.266;2023-03-03T08:23:58;30.60;;;13.43;;
17059;SDS011;8646;49.716;9.266;2023-03-03T08:27:01;35.50;;;13.97;;
17059;SDS011;8646;49.716;9.266;2023-03-03T08:30:06;34.50;;;13.67;;
17059;SDS011;8646;49.716;9.266;2023-03-03T08:33:10;38.80;;;14.23;;
17059;SDS011;8646;49.716;9.266;2023-03-03T08:36:14;40.03;;;14.40;;
17059;SDS011;8646;49.716;9.266;2023-03-03T08:39:19;33.53;;;14.77;;
17059;SDS011;8646;49.716;9.266;2023-03-03T08:42:21;33.43;;;14.63;;
17059;SDS011;8646;49.716;9.266;2023-03-03T08:45:26;31.50;;;13.77;;
17059;SDS011;8646;49.716;9.266;2023-03-03T08:48:30;30.80;;;14.47;;
17059;SDS011;8646;49.716;9.266;2023-03-03T08:51:34;27.70;;;13.07;;
17059;SDS011;8646;49.716;9.266;2023-03-03T08:54:44;33.50;;;14.20;;
17059;SDS011;8646;49.716;9.266;2023-03-03T08:57:53;38.63;;;14.43;;
17059;SDS011;8646;49.716;9.266;2023-03-03T09:00:56;38.23;;;17.00;;
17059;SDS011;8646;49.716;9.266;2023-03-03T09:03:59;37.60;;;15.63;;
17059;SDS011;8646;49.716;9.266;2023-03-03T09:07:02;33.33;;;15.43;;
17059;SDS011;8646;49.716;9.266;2023-03-03T09:10:07;32.37;;;14.47;;
17059;SDS011;8646;49.716;9.266;2023-03-03T09:13:13;39.87;;;16.70;;
17059;SDS011;8646;49.716;9.266;2023-03-03T09:16:17;37.27;;;15.03;;
17059;SDS011;8646;49.716;9.266;2023-03-03T09:19:22;28.17;;;12.77;;
17059;SDS011;8646;49.716;9.266;2023-03-03T09:22:27;32.67;;;14.73;;
17059;SDS011;8646;49.716;9.266;2023-03-03T09:25:32;31.17;;;15.30;;
17059;SDS011;8646;49.716;9.266;2023-03-03T09:28:37;35.17;;;15.67;;
17059;SDS011;8646;49.716;9.266;2023-03-03T09:31:41;31.93;;;15.47;;
17059;SDS011;8646;49.716;9.266;2023-03-03T09:34:45;30.97;;;14.33;;
17059;SDS011;8646;49.716;9.266;2023-03-03T09:37:49;30.23;;;15.30;;
17059;SDS011;8646;49.716;9.266;2023-03-03T09:44:52;32.17;;;14.50;;
17059;SDS011;8646;49.716;9.266;2023-03-03T09:48:16;42.50;;;15.70;;
17059;SDS011;8646;49.716;9.266;2023-03-03T09:51:33;34.03;;;14.93;;
17059;SDS011;8646;49.716;9.266;2023-03-03T09:54:58;31.23;;;13.47;;
17059;SDS011;8646;49.716;9.266;2023-03-03T09:58:20;32.23;;;14.77;;
17059;SDS011;8646;49.716;9.266;2023-03-03T10:01:41;29.83;;;12.13;;
17059;SDS011;8646;49.716;9.266;2023-03-03T10:04:58;33.10;;;14.13;;
17059;SDS011;8646;49.716;9.266;2023-03-03T10:08:27;29.80;;;13.53;;
17059;SDS011;8646;49.716;9.266;2023-03-03T10:11:43;32.37;;;14.40;;
17059;SDS011;8646;49.716;9.266;2023-03-03T10:18:33;34.17;;;14.63;;
17059;SDS011;8646;49.716;9.266;2023-03-03T10:21:43;32.43;;;14.73;;
17059;SDS011;8646;49.716;9.266;2023-03-03T10:24:59;30.17;;;13.10;;
17059;SDS011;8646;49.716;9.266;2023-03-03T10:28:12;30.37;;;14.37;;
17059;SDS011;8646;49.716;9.266;2023-03-03T10:31:35;30.30;;;14.73;;
17059;SDS011;8646;49.716;9.266;2023-03-03T10:34:48;30.47;;;14.17;;
17059;SDS011;8646;49.716;9.266;2023-03-03T10:38:08;28.27;;;13.17;;
17059;SDS011;8646;49.716;9.266;2023-03-03T10:41:34;29.10;;;12.50;;
17059;SDS011;8646;49.716;9.266;2023-03-03T10:44:56;30.50;;;13.23;;
17059;SDS011;8646;49.716;9.266;2023-03-03T10:48:24;31.07;;;14.00;;
17059;SDS011;8646;49.716;9.266;2023-03-03T10:51:48;33.07;;;15.13;;
17059;SDS011;8646;49.716;9.266;2023-03-03T10:55:08;36.23;;;16.03;;
17059;SDS011;8646;49.716;9.266;2023-03-03T10:58:25;32.70;;;15.10;;
17059;SDS011;8646;49.716;9.266;2023-03-03T11:01:46;30.60;;;14.93;;
17059;SDS011;8646;49.716;9.266;2023-03-03T11:04:57;33.03;;;15.57;;
17059;SDS011;8646;49.716;9.266;2023-03-03T11:08:08;32.40;;;15.63;;
17059;SDS011;8646;49.716;9.266;2023-03-03T11:11:19;30.20;;;13.63;;
17059;SDS011;8646;49.716;9.266;2023-03-03T11:14:31;33.10;;;14.13;;
17059;SDS011;8646;49.716;9.266;2023-03-03T11:17:39;31.30;;;14.60;;
17059;SDS011;8646;49.716;9.266;2023-03-03T11:20:57;31.43;;;13.83;;
17059;SDS011;8646;49.716;9.266;2023-03-03T11:27:52;28.73;;;13.30;;
17059;SDS011;8646;49.716;9.266;2023-03-03T11:31:09;33.93;;;16.53;;
17059;SDS011;8646;49.716;9.266;2023-03-03T11:34:30;29.53;;;13.07;;
17059;SDS011;8646;49.716;9.266;2023-03-03T11:37:55;29.20;;;13.33;;
17059;SDS011;8646;49.716;9.266;2023-03-03T11:41:07;32.57;;;14.67;;
17059;SDS011;8646;49.716;9.266;2023-03-03T11:44:17;31.60;;;14.93;;
17059;SDS011;8646;49.716;9.266;2023-03-03T11:47:29;29.77;;;13.90;;
17059;SDS011;8646;49.716;9.266;2023-03-03T11:50:45;30.37;;;14.50;;
17059;SDS011;8646;49.716;9.266;2023-03-03T11:53:58;30.47;;;13.93;;
17059;SDS011;8646;49.716;9.266;2023-03-03T11:57:09;31.13;;;14.43;;
17059;SDS011;8646;49.716;9.266;2023-03-03T12:00:27;30.33;;;14.13;;
17059;SDS011;8646;49.716;9.266;2023-03-03T12:03:36;31.37;;;13.10;;
17059;SDS011;8646;49.716;9.266;2023-03-03T12:06:46;34.50;;;13.50;;
17059;SDS011;8646;49.716;9.266;2023-03-03T12:10:23;33.53;;;15.37;;
17059;SDS011;8646;49.716;9.266;2023-03-03T12:13:37;39.93;;;18.40;;
17059;SDS011;8646;49.716;9.266;2023-03-03T12:17:08;27.57;;;13.27;;
17059;SDS011;8646;49.716;9.266;2023-03-03T12:20:21;40.10;;;16.47;;
17059;SDS011;8646;49.716;9.266;2023-03-03T12:23:54;30.13;;;13.17;;
17059;SDS011;8646;49.716;9.266;2023-03-03T12:27:12;30.80;;;13.63;;
17059;SDS011;8646;49.716;9.266;2023-03-03T12:34:03;31.93;;;15.77;;
17059;SDS011;8646;49.716;9.266;2023-03-03T12:37:27;33.37;;;14.90;;
17059;SDS011;8646;49.716;9.266;2023-03-03T12:40:50;52.63;;;25.27;;
17059;SDS011;8646;49.716;9.266;2023-03-03T12:44:14;33.10;;;16.60;;
17059;SDS011;8646;49.716;9.266;2023-03-03T12:47:24;33.40;;;16.37;;
17059;SDS011;8646;49.716;9.266;2023-03-03T12:50:34;31.07;;;15.13;;
17059;SDS011;8646;49.716;9.266;2023-03-03T12:53:50;35.80;;;15.87;;
17059;SDS011;8646;49.716;9.266;2023-03-03T12:57:09;33.83;;;16.60;;
17059;SDS011;8646;49.716;9.266;2023-03-03T13:00:23;40.53;;;19.20;;
17059;SDS011;8646;49.716;9.266;2023-03-03T13:03:34;34.77;;;16.47;;
17059;SDS011;8646;49.716;9.266;2023-03-03T13:06:57;32.23;;;16.10;;
17059;SDS011;8646;49.716;9.266;2023-03-03T13:10:08;37.67;;;18.10;;
17059;SDS011;8646;49.716;9.266;2023-03-03T13:13:19;35.40;;;16.67;;
17059;SDS011;8646;49.716;9.266;2023-03-03T13:16:31;39.37;;;17.57;;
17059;SDS011;8646;49.716;9.266;2023-03-03T13:19:45;32.70;;;16.73;;
17059;SDS011;8646;49.716;9.266;2023-03-03T13:22:54;37.43;;;17.73;;
17059;SDS011;8646;49.716;9.266;2023-03-03T13:26:02;34.43;;;15.93;;
17059;SDS011;8646;49.716;9.266;2023-03-03T13:29:12;35.43;;;17.00;;
17059;SDS011;8646;49.716;9.266;2023-03-03T13:32:22;37.27;;;17.63;;
17059;SDS011;8646;49.716;9.266;2023-03-03T13:35:31;38.30;;;18.20;;
17059;SDS011;8646;49.716;9.266;2023-03-03T13:38:45;37.80;;;17.53;;
17059;SDS011;8646;49.716;9.266;2023-03-03T13:41:50;39.33;;;19.13;;
17059;SDS011;8646;49.716;9.266;2023-03-03T13:44:58;33.67;;;16.53;;
17059;SDS011;8646;49.716;9.266;2023-03-03T13:48:13;33.60;;;15.93;;
17059;SDS011;8646;49.716;9.266;2023-03-03T13:51:27;35.13;;;16.37;;
17059;SDS011;8646;49.716;9.266;2023-03-03T13:54:45;33.60;;;16.80;;
17059;SDS011;8646;49.716;9.266;2023-03-03T13:57:58;34.23;;;16.77;;
17059;SDS011;8646;49.716;9.266;2023-03-03T14:01:05;33.60;;;15.50;;
17059;SDS011;8646;49.716;9.266;2023-03-03T14:04:19;34.20;;;14.83;;
17059;SDS011;8646;49.716;9.266;2023-03-03T14:07:35;34.37;;;14.47;;
17059;SDS011;8646;49.716;9.266;2023-03-03T14:10:48;39.23;;;14.97;;
17059;SDS011;8646;49.716;9.266;2023-03-03T14:14:07;36.43;;;15.97;;
17059;SDS011;8646;49.716;9.266;2023-03-03T14:17:16;34.30;;;16.17;;
17059;SDS011;8646;49.716;9.266;2023-03-03T14:20:32;28.93;;;12.70;;
17059;SDS011;8646;49.716;9.266;2023-03-03T14:23:46;31.30;;;15.43;;
17059;SDS011;8646;49.716;9.266;2023-03-03T14:26:53;33.73;;;15.33;;
17059;SDS011;8646;49.716;9.266;2023-03-03T14:29:57;32.47;;;13.13;;
17059;SDS011;8646;49.716;9.266;2023-03-03T14:33:02;26.90;;;10.77;;
17059;SDS011;8646;49.716;9.266;2023-03-03T14:36:25;32.57;;;14.63;;
17059;SDS011;8646;49.716;9.266;2023-03-03T14:39:32;33.80;;;16.20;;
17059;SDS011;8646;49.716;9.266;2023-03-03T14:42:37;34.70;;;15.20;;
17059;SDS011;8646;49.716;9.266;2023-03-03T14:45:49;33.60;;;14.80;;
17059;SDS011;8646;49.716;9.266;2023-03-03T14:48:52;31.30;;;14.27;;
17059;SDS011;8646;49.716;9.266;2023-03-03T14:52:02;30.73;;;14.77;;
17059;SDS011;8646;49.716;9.266;2023-03-03T14:55:27;32.77;;;14.37;;
17059;SDS011;8646;49.716;9.266;2023-03-03T14:58:37;31.80;;;14.47;;
17059;SDS011;8646;49.716;9.266;2023-03-03T15:01:42;27.07;;;13.47;;
17059;SDS011;8646;49.716;9.266;2023-03-03T15:05:14;31.63;;;13.67;;
17059;SDS011;8646;49.716;9.266;2023-03-03T15:08:29;31.67;;;12.80;;
17059;SDS011;8646;49.716;9.266;2023-03-03T15:11:36;28.03;;;12.70;;
17059;SDS011;8646;49.716;9.266;2023-03-03T15:14:41;28.60;;;12.13;;
17059;SDS011;8646;49.716;9.266;2023-03-03T15:17:53;28.07;;;12.47;;
17059;SDS011;8646;49.716;9.266;2023-03-03T15:21:01;23.87;;;10.77;;
17059;SDS011;8646;49.716;9.266;2023-03-03T15:24:11;23.70;;;8.03;;
17059;SDS011;8646;49.716;9.266;2023-03-03T15:27:25;25.57;;;12.03;;
17059;SDS011;8646;49.716;9.266;2023-03-03T15:30:33;26.53;;;12.53;;
17059;SDS011;8646;49.716;9.266;2023-03-03T15:33:42;26.47;;;11.33;;
17059;SDS011;8646;49.716;9.266;2023-03-03T15:36:59;26.30;;;11.63;;
17059;SDS011;8646;49.716;9.266;2023-03-03T15:40:15;22.60;;;10.53;;
17059;SDS011;8646;49.716;9.266;2023-03-03T15:43:26;25.63;;;11.47;;
17059;SDS011;8646;49.716;9.266;2023-03-03T15:46:48;23.03;;;11.23;;
17059;SDS011;8646;49.716;9.266;2023-03-03T15:50:27;28.13;;;12.30;;
17059;SDS011;8646;49.716;9.266;2023-03-03T15:53:54;27.17;;;11.67;;
17059;SDS011;8646;49.716;9.266;2023-03-03T15:57:11;26.33;;;12.17;;
17059;SDS011;8646;49.716;9.266;2023-03-03T16:00:24;17.67;;;7.20;;
17059;SDS011;8646;49.716;9.266;2023-03-03T16:03:45;26.27;;;11.47;;
17059;SDS011;8646;49.716;9.266;2023-03-03T16:06:55;29.90;;;10.73;;
17059;SDS011;8646;49.716;9.266;2023-03-03T16:10:14;26.10;;;11.83;;
17059;SDS011;8646;49.716;9.266;2023-03-03T16:13:31;21.93;;;10.13;;
17059;SDS011;8646;49.716;9.266;2023-03-03T16:17:04;20.07;;;9.60;;
17059;SDS011;8646;49.716;9.266;2023-03-03T16:20:20;22.47;;;9.47;;
17059;SDS011;8646;49.716;9.266;2023-03-03T16:23:34;24.37;;;10.50;;
17059;SDS011;8646;49.716;9.266;2023-03-03T16:26:46;23.47;;;10.90;;
17059;SDS011;8646;49.716;9.266;2023-03-03T16:30:02;21.47;;;10.13;;
17059;SDS011;8646;49.716;9.266;2023-03-03T16:33:17;26.90;;;11.50;;
17059;SDS011;8646;49.716;9.266;2023-03-03T16:36:27;24.70;;;9.50;;
17059;SDS011;8646;49.716;9.266;2023-03-03T16:39:39;23.90;;;9.47;;
17059;SDS011;8646;49.716;9.266;2023-03-03T16:42:59;23.80;;;11.03;;
17059;SDS011;8646;49.716;9.266;2023-03-03T16:46:19;30.47;;;12.07;;
17059;SDS011;8646;49.716;9.266;2023-03-03T16:49:29;26.30;;;11.07;;
17059;SDS011;8646;49.716;9.266;2023-03-03T16:52:39;25.87;;;10.33;;
17059;SDS011;8646;49.716;9.266;2023-03-03T16:55:57;24.40;;;10.10;;
17059;SDS011;8646;49.716;9.266;2023-03-03T16:59:11;22.17;;;10.50;;
17059;SDS011;8646;49.716;9.266;2023-03-03T17:02:43;21.30;;;10.50;;
17059;SDS011;8646;49.716;9.266;2023-03-03T17:05:59;18.43;;;8.30;;
17059;SDS011;8646;49.716;9.266;2023-03-03T17:12:59;22.17;;;10.37;;
17059;SDS011;8646;49.716;9.266;2023-03-03T17:16:16;25.53;;;11.73;;
17059;SDS011;8646;49.716;9.266;2023-03-03T17:19:42;25.73;;;10.53;;
17059;SDS011;8646;49.716;9.266;2023-03-03T17:23:06;23.47;;;11.00;;
17059;SDS011;8646;49.716;9.266;2023-03-03T17:26:32;34.00;;;14.73;;
17059;SDS011;8646;49.716;9.266;2023-03-03T17:29:47;36.93;;;15.23;;
17059;SDS011;8646;49.716;9.266;2023-03-03T17:36:41;34.73;;;13.73;;
17059;SDS011;8646;49.716;9.266;2023-03-03T17:39:57;34.70;;;14.00;;
17059;SDS011;8646;49.716;9.266;2023-03-03T17:43:15;32.70;;;13.27;;
17059;SDS011;8646;49.716;9.266;2023-03-03T17:46:25;34.57;;;16.43;;
17059;SDS011;8646;49.716;9.266;2023-03-03T17:49:44;36.63;;;16.03;;
17059;SDS011;8646;49.716;9.266;2023-03-03T17:53:01;25.07;;;12.03;;
17059;SDS011;8646;49.716;9.266;2023-03-03T17:56:20;46.73;;;18.47;;
17059;SDS011;8646;49.716;9.266;2023-03-03T17:59:36;30.37;;;13.10;;
17059;SDS011;8646;49.716;9.266;2023-03-03T18:03:01;30.23;;;13.63;;
17059;SDS011;8646;49.716;9.266;2023-03-03T18:06:38;23.77;;;10.70;;
17059;SDS011;8646;49.716;9.266;2023-03-03T18:13:44;26.50;;;11.27;;
17059;SDS011;8646;49.716;9.266;2023-03-03T18:17:14;32.23;;;13.23;;
17059;SDS011;8646;49.716;9.266;2023-03-03T18:20:38;34.43;;;13.50;;
17059;SDS011;8646;49.716;9.266;2023-03-03T18:27:35;37.03;;;15.70;;
17059;SDS011;8646;49.716;9.266;2023-03-03T18:30:52;34.83;;;15.10;;
17059;SDS011;8646;49.716;9.266;2023-03-03T18:34:06;29.60;;;14.37;;
17059;SDS011;8646;49.716;9.266;2023-03-03T18:40:47;36.97;;;16.73;;
17059;SDS011;8646;49.716;9.266;2023-03-03T18:43:55;27.33;;;11.93;;
17059;SDS011;8646;49.716;9.266;2023-03-03T18:46:59;27.97;;;11.67;;
17059;SDS011;8646;49.716;9.266;2023-03-03T18:50:05;26.53;;;11.57;;
17059;SDS011;8646;49.716;9.266;2023-03-03T18:53:24;31.37;;;12.23;;
17059;SDS011;8646;49.716;9.266;2023-03-03T18:56:41;31.80;;;12.83;;
17059;SDS011;8646;49.716;9.266;2023-03-03T18:59:54;36.40;;;15.20;;
17059;SDS011;8646;49.716;9.266;2023-03-03T19:02:59;31.70;;;13.13;;
17059;SDS011;8646;49.716;9.266;2023-03-03T19:06:02;26.30;;;10.77;;
17059;SDS011;8646;49.716;9.266;2023-03-03T19:09:09;25.20;;;10.90;;
17059;SDS011;8646;49.716;9.266;2023-03-03T19:12:14;26.30;;;10.67;;
17059;SDS011;8646;49.716;9.266;2023-03-03T19:19:09;27.43;;;10.40;;
17059;SDS011;8646;49.716;9.266;2023-03-03T19:22:19;25.20;;;10.97;;
17059;SDS011;8646;49.716;9.266;2023-03-03T19:25:26;26.83;;;10.80;;
17059;SDS011;8646;49.716;9.266;2023-03-03T19:28:33;31.87;;;15.27;;
17059;SDS011;8646;49.716;9.266;2023-03-03T19:31:45;24.93;;;12.07;;
17059;SDS011;8646;49.716;9.266;2023-03-03T19:34:56;27.50;;;12.07;;
17059;SDS011;8646;49.716;9.266;2023-03-03T19:38:13;27.73;;;12.33;;